Time;durP1;ratioP1;P1;durP2;ratioP2;P2;SDS_P1;SDS_P2;PMS_P1;PMS_P2;Temp;Humidity;BMP_temperature;BMP_pressure;BME280_temperature;BME280_humidity;BME280_pressure;Samples;Min_cycle;Max_cycle;Signal;HPM_P1;HPM_P2
2023/08/20 00:00:16;;;;;;;14.45;12.75;;;27.20;99.90;;;;;;5003935;28;20205;-73
2023/08/20 00:02:45;;;;;;;14.18;12.75;;;27.30;99.90;;;;;;5001822;28;20205;-72
2023/08/20 00:05:11;;;;;;;14.48;12.98;;;27.20;99.90;;;;;;4999146;28;20255;-73
2023/08/20 00:07:37;;;;;;;14.55;13.15;;;27.30;99.90;;;;;;5004621;28;20681;-70
2023/08/20 00:10:04;;;;;;;13.95;12.55;;;27.30;99.90;;;;;;4991735;28;20179;-71
2023/08/20 00:12:30;;;;;;;15.25;13.75;;;27.20;99.90;;;;;;5001255;28;20217;-73
2023/08/20 00:14:58;;;;;;;15.68;14.00;;;27.00;99.90;;;;;;5005971;28;20264;-71
2023/08/20 00:17:26;;;;;;;14.82;13.35;;;27.00;99.90;;;;;;5001229;28;20240;-72
2023/08/20 00:19:53;;;;;;;15.07;13.57;;;27.00;99.90;;;;;;5003521;28;20217;-72
2023/08/20 00:22:21;;;;;;;15.75;14.15;;;27.00;99.90;;;;;;4997359;28;20181;-73
2023/08/20 00:24:47;;;;;;;14.98;13.57;;;27.00;99.90;;;;;;4998026;28;20182;-73
2023/08/20 00:27:12;;;;;;;15.18;13.68;;;26.90;99.90;;;;;;4997959;28;20293;-72
2023/08/20 00:29:38;;;;;;;14.52;13.05;;;26.90;99.90;;;;;;5001219;28;20724;-72
2023/08/20 00:32:04;;;;;;;14.35;12.43;;;26.90;99.90;;;;;;5000795;28;20206;-72
2023/08/20 00:34:29;;;;;;;14.68;13.13;;;26.80;99.90;;;;;;5005581;28;20212;-72
2023/08/20 00:36:55;;;;;;;14.90;13.30;;;26.80;99.90;;;;;;5006417;28;20711;-72
2023/08/20 00:39:21;;;;;;;13.98;12.60;;;26.80;99.90;;;;;;5006924;28;20292;-74
2023/08/20 00:41:46;;;;;;;14.60;13.13;;;26.70;99.90;;;;;;5002760;28;20214;-72
2023/08/20 00:44:12;;;;;;;14.30;12.88;;;26.70;99.90;;;;;;5008944;28;20812;-73
2023/08/20 00:46:38;;;;;;;14.43;12.90;;;26.80;99.90;;;;;;5002623;28;20221;-73
2023/08/20 00:49:04;;;;;;;15.30;13.80;;;26.80;99.90;;;;;;5010977;28;20185;-73
2023/08/20 00:51:32;;;;;;;14.10;12.80;;;26.80;99.90;;;;;;5008077;28;20212;-72
2023/08/20 00:53:57;;;;;;;14.23;12.88;;;26.90;99.90;;;;;;5008440;28;20213;-73
2023/08/20 00:56:23;;;;;;;14.05;12.45;;;26.90;99.90;;;;;;4998451;28;20209;-72
2023/08/20 00:58:49;;;;;;;14.38;12.93;;;26.90;99.90;;;;;;4998427;28;20224;-73
2023/08/20 01:01:14;;;;;;;13.82;12.52;;;26.90;99.90;;;;;;5005418;28;20181;-72
2023/08/20 01:03:40;;;;;;;14.25;12.82;;;26.90;99.90;;;;;;5004699;28;20232;-72
2023/08/20 01:06:37;;;;;;;14.23;11.85;;;26.80;99.90;;;;;;4998702;28;20214;-73
2023/08/20 01:09:31;;;;;;;13.77;12.40;;;26.70;99.90;;;;;;5001606;28;20208;-72
2023/08/20 01:12:01;;;;;;;13.25;11.85;;;26.70;99.90;;;;;;5001063;28;20257;-72
2023/08/20 01:14:26;;;;;;;13.13;11.80;;;26.70;99.90;;;;;;5003901;28;20209;-71
2023/08/20 01:16:52;;;;;;;13.90;12.60;;;26.60;99.90;;;;;;5011356;28;20606;-72
2023/08/20 01:19:19;;;;;;;17.15;12.68;;;26.60;99.90;;;;;;5005352;28;20259;-73
2023/08/20 01:22:06;;;;;;;13.55;11.82;;;26.50;99.90;;;;;;5010188;28;20181;-72
2023/08/20 01:24:34;;;;;;;13.95;12.55;;;26.40;99.90;;;;;;5002360;28;20686;-72
2023/08/20 01:27:10;;;;;;;15.82;12.65;;;26.50;99.90;;;;;;5000399;28;20244;-73
2023/08/20 01:29:37;;;;;;;15.20;12.50;;;26.40;99.90;;;;;;4993643;28;20590;-72
2023/08/20 01:32:04;;;;;;;15.48;13.30;;;26.30;99.90;;;;;;5002342;28;20210;-72
2023/08/20 01:34:30;;;;;;;16.30;12.73;;;26.30;99.90;;;;;;4998506;28;20188;-72
2023/08/20 01:36:56;;;;;;;17.05;12.45;;;26.20;99.90;;;;;;4996021;28;20190;-72
2023/08/20 01:39:21;;;;;;;13.52;11.93;;;26.30;99.90;;;;;;5005983;28;20227;-72
2023/08/20 01:41:47;;;;;;;13.15;11.60;;;26.10;99.90;;;;;;5001617;28;20216;-72
2023/08/20 01:44:13;;;;;;;15.02;12.48;;;26.10;99.90;;;;;;5003207;28;20326;-73
2023/08/20 01:46:39;;;;;;;14.23;12.38;;;26.10;99.90;;;;;;4997515;28;20279;-72
2023/08/20 01:49:04;;;;;;;15.23;12.65;;;26.10;99.90;;;;;;5002285;28;20185;-72
2023/08/20 01:51:30;;;;;;;14.55;12.50;;;26.00;99.90;;;;;;5001298;28;20749;-72
2023/08/20 01:53:56;;;;;;;15.60;12.18;;;26.00;99.90;;;;;;5004005;28;20255;-72
2023/08/20 01:56:21;;;;;;;14.23;12.02;;;25.90;99.90;;;;;;4996766;28;20220;-72
2023/08/20 01:58:47;;;;;;;13.95;12.48;;;25.90;99.90;;;;;;4998408;28;20632;-72
2023/08/20 02:01:12;;;;;;;15.57;14.07;;;25.90;99.90;;;;;;4995215;28;20232;-74
2023/08/20 02:03:39;;;;;;;14.23;12.73;;;26.00;99.90;;;;;;5005593;28;20291;-72
2023/08/20 02:06:04;;;;;;;16.40;12.77;;;25.90;99.90;;;;;;4994272;28;20751;-72
2023/08/20 02:08:30;;;;;;;14.27;11.63;;;25.90;99.90;;;;;;5002794;28;20213;-72
2023/08/20 02:11:03;;;;;;;13.43;12.10;;;25.80;99.90;;;;;;5000349;28;20201;-72
2023/08/20 02:13:29;;;;;;;14.90;12.98;;;25.80;99.90;;;;;;4998798;28;20184;-72
2023/08/20 02:16:12;;;;;;;12.77;11.50;;;25.80;99.90;;;;;;4996932;28;20202;-72
2023/08/20 02:18:38;;;;;;;12.57;11.40;;;25.80;99.90;;;;;;5001897;28;20287;-72
2023/08/20 02:21:03;;;;;;;13.32;10.88;;;25.70;99.90;;;;;;4999535;28;20259;-73
2023/08/20 02:23:29;;;;;;;14.85;11.27;;;25.70;99.90;;;;;;5000095;28;20197;-72
2023/08/20 02:25:55;;;;;;;15.73;11.43;;;25.70;99.90;;;;;;4999637;28;20213;-72
2023/08/20 02:28:20;;;;;;;13.05;10.95;;;25.70;99.90;;;;;;4999156;28;20177;-73
2023/08/20 02:30:46;;;;;;;11.55;10.35;;;25.60;99.90;;;;;;4999687;28;20257;-72
2023/08/20 02:33:12;;;;;;;12.75;10.55;;;25.60;99.90;;;;;;5010755;28;20699;-72
2023/08/20 02:35:38;;;;;;;13.52;10.90;;;25.60;99.90;;;;;;5010050;28;20259;-71
2023/08/20 02:38:05;;;;;;;12.38;10.18;;;25.50;99.90;;;;;;4995378;28;20208;-70
2023/08/20 02:40:31;;;;;;;12.90;10.73;;;25.50;99.90;;;;;;4990710;28;20200;-71
2023/08/20 02:42:57;;;;;;;11.40;10.18;;;25.50;99.90;;;;;;5010608;28;20173;-71
2023/08/20 02:45:23;;;;;;;12.65;9.80;;;25.50;99.90;;;;;;5010617;28;20240;-72
2023/08/20 02:47:49;;;;;;;11.10;9.80;;;25.40;99.90;;;;;;5009246;28;20255;-72
2023/08/20 02:50:15;;;;;;;11.80;10.60;;;25.40;99.90;;;;;;5005915;28;20232;-72
2023/08/20 02:52:42;;;;;;;10.50;9.40;;;25.40;99.90;;;;;;5006945;28;20263;-72
2023/08/20 02:55:08;;;;;;;12.02;10.05;;;25.40;99.90;;;;;;5009922;28;20316;-72
2023/08/20 02:57:33;;;;;;;12.00;10.15;;;25.30;99.90;;;;;;5007961;28;20276;-72
2023/08/20 02:59:59;;;;;;;10.82;9.32;;;25.30;99.90;;;;;;5003905;28;20201;-72
2023/08/20 03:02:25;;;;;;;11.15;10.05;;;25.30;99.90;;;;;;5006045;28;20201;-72
2023/08/20 03:04:50;;;;;;;10.82;9.73;;;25.30;99.90;;;;;;5002823;28;20347;-72
2023/08/20 03:07:16;;;;;;;11.27;10.13;;;25.20;99.90;;;;;;5004273;28;20288;-73
2023/08/20 03:09:41;;;;;;;10.90;9.75;;;25.20;99.90;;;;;;5005805;28;20189;-72
2023/08/20 03:12:07;;;;;;;12.25;10.23;;;25.10;99.90;;;;;;5006694;28;20219;-72
2023/08/20 03:14:33;;;;;;;12.90;9.98;;;25.10;99.90;;;;;;5010346;28;20216;-73
2023/08/20 03:16:58;;;;;;;12.13;10.57;;;25.10;99.90;;;;;;5010753;28;20240;-73
2023/08/20 03:19:24;;;;;;;12.43;10.50;;;25.10;99.90;;;;;;5008100;28;20183;-74
2023/08/20 03:21:50;;;;;;;12.30;9.60;;;25.10;99.90;;;;;;5010406;28;20173;-73
2023/08/20 03:24:15;;;;;;;12.13;9.93;;;25.00;99.90;;;;;;5006474;28;20304;-73
2023/08/20 03:26:41;;;;;;;10.30;9.27;;;24.90;99.90;;;;;;5006000;28;20209;-73
2023/08/20 03:29:06;;;;;;;11.18;10.05;;;25.00;99.90;;;;;;5006741;28;20544;-73
2023/08/20 03:31:32;;;;;;;10.93;9.82;;;24.90;99.90;;;;;;5007102;28;20591;-73
2023/08/20 03:33:58;;;;;;;11.88;10.55;;;24.90;99.90;;;;;;5003611;28;20178;-72
2023/08/20 03:36:23;;;;;;;13.20;10.48;;;24.90;99.90;;;;;;5007232;28;20707;-73
2023/08/20 03:38:49;;;;;;;12.95;11.30;;;24.90;99.90;;;;;;5002786;28;20216;-73
2023/08/20 03:41:14;;;;;;;13.27;9.93;;;24.80;99.90;;;;;;5005268;28;20263;-73
2023/08/20 03:43:40;;;;;;;11.75;9.48;;;24.70;99.90;;;;;;5003458;28;20691;-75
2023/08/20 03:46:06;;;;;;;13.68;10.80;;;24.60;99.90;;;;;;5001380;28;20224;-72
2023/08/20 03:48:32;;;;;;;15.98;10.43;;;24.60;99.90;;;;;;5026061;22;20409;-72
2023/08/20 03:50:57;;;;;;;11.40;10.10;;;24.60;99.90;;;;;;5016612;28;20762;-73
2023/08/20 03:53:23;;;;;;;11.95;10.48;;;24.60;99.90;;;;;;5010877;28;20204;-72
2023/08/20 03:55:49;;;;;;;13.77;11.40;;;24.60;99.90;;;;;;5010096;28;20426;-73
2023/08/20 03:58:15;;;;;;;13.85;10.32;;;24.60;99.90;;;;;;4998140;28;20233;-73
2023/08/20 04:00:40;;;;;;;13.45;10.48;;;24.70;99.90;;;;;;4989820;28;20303;-73
2023/08/20 04:03:06;;;;;;;15.10;12.13;;;24.60;99.90;;;;;;4990038;28;20210;-73
2023/08/20 04:05:38;;;;;;;11.43;10.32;;;24.60;99.90;;;;;;4996781;28;20201;-72
2023/08/20 04:08:04;;;;;;;12.88;10.48;;;24.60;99.90;;;;;;4986861;28;20218;-73
2023/08/20 04:10:31;;;;;;;12.63;10.27;;;24.50;99.90;;;;;;4985574;28;20582;-70
2023/08/20 04:12:56;;;;;;;11.57;10.45;;;24.60;99.90;;;;;;4988050;28;20184;-73
2023/08/20 04:15:22;;;;;;;12.82;10.63;;;24.50;99.90;;;;;;4986576;28;20719;-73
2023/08/20 04:17:48;;;;;;;12.35;11.05;;;24.60;99.90;;;;;;4983966;28;20214;-73
2023/08/20 04:20:14;;;;;;;12.82;11.52;;;24.60;99.90;;;;;;4983390;28;20214;-73
2023/08/20 04:22:40;;;;;;;14.52;11.70;;;24.50;99.90;;;;;;4997539;28;20209;-73
2023/08/20 04:25:06;;;;;;;12.63;10.60;;;24.60;99.90;;;;;;4990969;28;20208;-73
2023/08/20 04:27:32;;;;;;;14.75;11.23;;;24.60;99.90;;;;;;5001698;28;20276;-73
2023/08/20 04:29:57;;;;;;;13.25;11.60;;;24.60;99.90;;;;;;4996714;28;20242;-74
2023/08/20 04:32:23;;;;;;;12.45;11.15;;;24.60;99.90;;;;;;4998665;28;20229;-73
2023/08/20 04:34:49;;;;;;;15.35;11.40;;;24.90;99.90;;;;;;4992324;28;20236;-73
2023/08/20 04:37:15;;;;;;;13.95;11.60;;;25.00;99.90;;;;;;4992479;28;20205;-73
2023/08/20 04:39:41;;;;;;;11.73;10.52;;;25.20;99.90;;;;;;4986580;28;20603;-73
2023/08/20 04:42:06;;;;;;;14.80;11.25;;;26.40;99.90;;;;;;4989077;28;20747;-73
2023/08/20 04:44:32;;;;;;;11.18;10.07;;;27.30;99.90;;;;;;4989928;28;20292;-74
2023/08/20 04:46:57;;;;;;;14.73;10.55;;;28.00;99.90;;;;;;4986580;28;20638;-73
2023/08/20 04:49:25;;;;;;;15.90;11.38;;;28.60;99.90;;;;;;4987832;28;20178;-73
2023/08/20 04:51:51;;;;;;;13.55;11.73;;;28.60;99.90;;;;;;4986393;28;20170;-73
2023/08/20 04:54:17;;;;;;;12.50;10.25;;;28.90;99.90;;;;;;4983697;28;20213;-74
2023/08/20 04:56:43;;;;;;;13.30;10.77;;;29.00;99.90;;;;;;4987620;28;20684;-74
2023/08/20 04:59:08;;;;;;;12.40;10.38;;;28.70;99.90;;;;;;4974719;28;20206;-73
2023/08/20 05:01:34;;;;;;;14.32;11.23;;;28.30;99.90;;;;;;4983171;28;20176;-73
2023/08/20 05:04:00;;;;;;;14.77;11.57;;;27.80;99.90;;;;;;4986162;28;20593;-73
2023/08/20 05:06:25;;;;;;;17.45;11.55;;;27.70;99.90;;;;;;4996332;28;20214;-73
2023/08/20 05:08:51;;;;;;;15.77;12.90;;;27.40;99.90;;;;;;4985821;28;20202;-74
2023/08/20 05:11:16;;;;;;;14.93;11.32;;;27.00;99.90;;;;;;4986511;28;20261;-73
2023/08/20 05:13:45;;;;;;;13.52;11.52;;;27.00;99.90;;;;;;4989688;28;20676;-73
2023/08/20 05:16:10;;;;;;;12.85;11.00;;;26.80;99.90;;;;;;4991288;28;20182;-73
2023/08/20 05:18:36;;;;;;;14.20;12.70;;;27.00;99.90;;;;;;4977464;28;20586;-73
2023/08/20 05:21:01;;;;;;;13.35;11.95;;;27.00;99.90;;;;;;4981397;28;20210;-74
2023/08/20 05:23:27;;;;;;;13.88;12.38;;;27.40;99.90;;;;;;4981530;28;20209;-73
2023/08/20 05:25:53;;;;;;;17.35;12.32;;;27.90;99.90;;;;;;4979724;28;20205;-73
2023/08/20 05:28:18;;;;;;;12.27;10.82;;;28.20;99.90;;;;;;4981988;28;20426;-73
2023/08/20 05:30:44;;;;;;;13.93;12.45;;;28.30;99.90;;;;;;4981241;28;20189;-73
2023/08/20 05:33:09;;;;;;;16.35;12.55;;;28.20;99.90;;;;;;4976410;28;20743;-73
2023/08/20 05:35:35;;;;;;;15.15;12.13;;;28.00;99.90;;;;;;4983667;28;20212;-73
2023/08/20 05:38:01;;;;;;;16.83;12.25;;;27.60;99.90;;;;;;4986901;28;20283;-73
2023/08/20 05:40:27;;;;;;;15.98;12.88;;;27.40;99.90;;;;;;4984287;28;20268;-73
2023/08/20 05:42:52;;;;;;;15.30;11.93;;;27.00;99.90;;;;;;4984685;28;20194;-73
2023/08/20 05:45:18;;;;;;;18.42;14.63;;;26.70;99.90;;;;;;4984504;28;20212;-73
2023/08/20 05:47:43;;;;;;;13.27;12.00;;;26.60;99.90;;;;;;4990383;28;20244;-73
2023/08/20 05:50:09;;;;;;;14.77;13.10;;;26.50;99.90;;;;;;4990160;28;20313;-72
2023/08/20 05:52:34;;;;;;;14.95;13.45;;;26.40;99.90;;;;;;4982104;28;20252;-73
2023/08/20 05:55:00;;;;;;;16.13;13.10;;;26.20;99.90;;;;;;4984735;28;20184;-71
2023/08/20 05:57:26;;;;;;;15.02;12.68;;;26.20;99.90;;;;;;4984309;28;20703;-72
2023/08/20 05:59:51;;;;;;;15.82;11.90;;;26.20;99.90;;;;;;4979851;28;20210;-74
2023/08/20 06:02:20;;;;;;;14.00;12.38;;;26.40;99.90;;;;;;4973876;28;20211;-73
2023/08/20 06:04:45;;;;;;;15.07;13.25;;;26.40;99.90;;;;;;4977861;28;20216;-74
2023/08/20 06:07:11;;;;;;;17.00;12.68;;;26.40;99.90;;;;;;4978329;28;20598;-71
2023/08/20 06:09:36;;;;;;;15.77;12.40;;;26.30;99.90;;;;;;4980434;28;20622;-74
2023/08/20 06:12:02;;;;;;;17.73;13.88;;;26.10;99.90;;;;;;4974857;28;20210;-74
2023/08/20 06:14:27;;;;;;;18.55;13.32;;;26.00;99.90;;;;;;4987779;28;20214;-74
2023/08/20 06:16:53;;;;;;;14.80;13.27;;;25.90;99.90;;;;;;4987373;28;20719;-73
2023/08/20 06:19:19;;;;;;;17.48;14.82;;;25.80;99.90;;;;;;4979159;28;20178;-73
2023/08/20 06:21:44;;;;;;;17.00;13.85;;;25.90;99.90;;;;;;4980550;28;20266;-73
2023/08/20 06:24:10;;;;;;;15.43;12.98;;;26.00;99.90;;;;;;4976830;28;20591;-72
2023/08/20 06:26:36;;;;;;;15.20;12.77;;;26.00;99.90;;;;;;4978871;28;20212;-73
2023/08/20 06:29:01;;;;;;;15.38;12.60;;;26.00;99.90;;;;;;4981751;28;20996;-73
2023/08/20 06:31:27;;;;;;;14.40;12.50;;;26.00;99.90;;;;;;4981998;28;20184;-74
2023/08/20 06:33:52;;;;;;;14.02;12.38;;;26.00;99.90;;;;;;4975193;28;20209;-73
2023/08/20 06:36:18;;;;;;;13.18;11.77;;;26.00;99.90;;;;;;4981408;28;20210;-73
2023/08/20 06:38:44;;;;;;;13.02;11.60;;;26.10;99.90;;;;;;4984206;28;20210;-73
2023/08/20 06:41:09;;;;;;;13.25;11.73;;;26.10;99.90;;;;;;4983558;28;20672;-72
2023/08/20 06:43:35;;;;;;;12.65;11.35;;;26.00;99.90;;;;;;4978208;28;20174;-72
2023/08/20 06:46:00;;;;;;;13.52;10.88;;;25.90;99.90;;;;;;4977576;28;20183;-73
2023/08/20 06:48:26;;;;;;;13.77;10.98;;;26.00;99.90;;;;;;4977360;28;20218;-73
2023/08/20 06:50:52;;;;;;;11.82;10.32;;;26.00;99.90;;;;;;4981077;28;20209;-73
2023/08/20 06:53:17;;;;;;;13.30;11.55;;;26.00;99.90;;;;;;4987175;28;20214;-73
2023/08/20 06:55:43;;;;;;;12.85;11.30;;;25.90;99.90;;;;;;4998707;28;20289;-73
2023/08/20 06:58:09;;;;;;;13.48;11.75;;;25.90;99.90;;;;;;4982886;28;20198;-73
2023/08/20 07:00:34;;;;;;;18.15;11.60;;;25.90;99.90;;;;;;4986150;28;20763;-74
2023/08/20 07:03:00;;;;;;;13.73;11.80;;;25.80;99.90;;;;;;4981885;28;20798;-73
2023/08/20 07:05:25;;;;;;;14.65;12.10;;;25.70;99.90;;;;;;4989128;28;20214;-73
2023/08/20 07:07:51;;;;;;;13.05;11.07;;;25.60;99.90;;;;;;4978597;28;20239;-73
2023/08/20 07:10:17;;;;;;;17.02;11.82;;;25.50;99.90;;;;;;4986554;28;20189;-71
2023/08/20 07:12:42;;;;;;;12.35;11.02;;;25.40;99.90;;;;;;4981420;28;20181;-72
2023/08/20 07:15:08;;;;;;;13.98;11.52;;;25.30;99.90;;;;;;4973255;28;20576;-74
2023/08/20 07:17:34;;;;;;;15.98;11.23;;;25.30;99.90;;;;;;4978954;28;20728;-73
2023/08/20 07:19:59;;;;;;;13.23;11.00;;;25.50;99.90;;;;;;4972401;28;20293;-73
2023/08/20 07:22:25;;;;;;;14.93;11.13;;;25.90;99.90;;;;;;4980133;28;20182;-72
2023/08/20 07:24:51;;;;;;;14.60;11.55;;;26.10;99.90;;;;;;4979133;28;20174;-73
2023/08/20 07:27:16;;;;;;;12.63;10.48;;;26.00;99.90;;;;;;4989087;28;20658;-72
2023/08/20 07:29:42;;;;;;;14.80;10.80;;;26.00;99.90;;;;;;4983457;28;20208;-75
2023/08/20 07:32:07;;;;;;;12.10;9.88;;;26.00;99.90;;;;;;4993132;28;20671;-74
2023/08/20 07:34:34;;;;;;;11.30;9.35;;;26.20;99.90;;;;;;4984573;28;20606;-72
2023/08/20 07:37:00;;;;;;;11.75;8.63;;;26.40;99.90;;;;;;4994133;28;20254;-72
2023/08/20 07:39:26;;;;;;;12.10;9.70;;;26.40;99.90;;;;;;4990017;28;20209;-72
2023/08/20 07:41:52;;;;;;;12.45;9.77;;;26.40;99.90;;;;;;4984586;28;20908;-73
2023/08/20 07:44:17;;;;;;;15.45;9.90;;;26.60;99.90;;;;;;4992692;28;20238;-73
2023/08/20 07:46:43;;;;;;;13.38;11.07;;;26.60;99.90;;;;;;4979381;28;20284;-74
2023/08/20 07:49:09;;;;;;;13.63;11.70;;;26.90;99.90;;;;;;4988188;28;20656;-74
2023/08/20 07:51:34;;;;;;;14.73;11.27;;;27.50;99.90;;;;;;4981653;28;20210;-74
2023/08/20 07:54:00;;;;;;;13.00;10.68;;;28.70;99.90;;;;;;4983255;28;20202;-74
2023/08/20 07:56:26;;;;;;;10.50;9.30;;;30.40;99.90;;;;;;4992748;28;20206;-74
2023/08/20 07:58:52;;;;;;;10.88;8.32;;;32.40;99.90;;;;;;4982486;28;20210;-74
2023/08/20 08:01:17;;;;;;;9.25;7.95;;;33.60;99.90;;;;;;4977581;28;20174;-74
2023/08/20 08:03:43;;;;;;;9.38;7.90;;;34.10;99.90;;;;;;4981364;28;20208;-74
2023/08/20 08:06:09;;;;;;;10.07;7.72;;;34.50;99.90;;;;;;4988461;28;20336;-74
2023/08/20 08:08:34;;;;;;;7.78;7.05;;;35.60;99.90;;;;;;4992909;28;20214;-75
2023/08/20 08:11:00;;;;;;;7.13;6.53;;;36.10;99.90;;;;;;4996040;28;20196;-75
2023/08/20 08:13:26;;;;;;;5.95;5.40;;;36.40;99.90;;;;;;4989914;28;20193;-74
2023/08/20 08:15:52;;;;;;;6.03;5.50;;;36.80;99.90;;;;;;4989315;28;20820;-74
2023/08/20 08:18:20;;;;;;;6.65;6.05;;;37.00;99.90;;;;;;4978608;28;20225;-74
2023/08/20 08:20:46;;;;;;;7.68;6.97;;;37.30;99.90;;;;;;4989119;28;20209;-74
2023/08/20 08:23:12;;;;;;;6.80;5.65;;;36.80;99.90;;;;;;4991955;28;20216;-74
2023/08/20 08:25:38;;;;;;;6.32;5.70;;;36.90;99.90;;;;;;4983997;28;20217;-74
2023/08/20 08:28:04;;;;;;;6.60;6.00;;;37.40;99.90;;;;;;4980618;28;20232;-74
2023/08/20 08:30:30;;;;;;;6.03;5.53;;;37.00;99.90;;;;;;4986522;28;20229;-73
2023/08/20 08:32:56;;;;;;;6.35;5.75;;;37.00;99.90;;;;;;4978145;28;20243;-74
2023/08/20 08:35:21;;;;;;;5.60;5.07;;;37.40;99.90;;;;;;4978314;28;20210;-74
2023/08/20 08:37:47;;;;;;;6.32;5.72;;;37.50;99.90;;;;;;4978612;28;20593;-75
2023/08/20 08:40:13;;;;;;;6.10;5.50;;;37.30;99.90;;;;;;4988265;28;20200;-74
2023/08/20 08:42:40;;;;;;;5.63;4.82;;;37.40;99.90;;;;;;4990354;28;20210;-74
2023/08/20 08:45:06;;;;;;;5.75;5.15;;;37.20;99.90;;;;;;4981181;28;20594;-74
2023/08/20 08:47:33;;;;;;;5.47;4.97;;;36.70;99.90;;;;;;4991631;28;20224;-73
2023/08/20 08:49:59;;;;;;;9.27;5.93;;;35.50;99.90;;;;;;4981384;28;20569;-74
2023/08/20 08:52:25;;;;;;;6.13;5.25;;;34.60;99.90;;;;;;4984090;28;20236;-74
2023/08/20 08:54:54;;;;;;;6.20;5.70;;;33.50;99.90;;;;;;4983968;28;20173;-74
2023/08/20 08:57:19;;;;;;;5.30;4.75;;;34.70;99.90;;;;;;4992629;28;20298;-74
2023/08/20 08:59:45;;;;;;;4.72;4.32;;;35.70;99.90;;;;;;4992789;28;20266;-73
2023/08/20 09:02:12;;;;;;;3.95;3.65;;;35.30;99.90;;;;;;4983571;28;20364;-74
2023/08/20 09:04:40;;;;;;;5.45;4.95;;;34.60;99.90;;;;;;4975332;28;20819;-74
2023/08/20 09:07:10;;;;;;;5.50;4.13;;;34.20;99.90;;;;;;4975375;28;20206;-74
2023/08/20 09:09:37;;;;;;;5.20;4.70;;;34.60;99.90;;;;;;4984936;28;20284;-74
2023/08/20 09:12:13;;;;;;;5.13;4.72;;;34.60;99.90;;;;;;4977201;28;20205;-75
2023/08/20 09:14:39;;;;;;;6.65;4.53;;;34.50;99.90;;;;;;4973046;28;20209;-74
2023/08/20 09:17:04;;;;;;;6.82;4.93;;;34.40;99.90;;;;;;4985435;28;20208;-74
2023/08/20 09:19:37;;;;;;;5.85;4.22;;;34.00;99.90;;;;;;4997300;28;20236;-71
2023/08/20 09:22:03;;;;;;;7.80;4.85;;;33.90;99.90;;;;;;4989537;28;20543;-74
2023/08/20 09:24:44;;;;;;;6.40;4.18;;;34.10;99.90;;;;;;4991752;28;20252;-71
2023/08/20 09:27:09;;;;;;;6.93;4.43;;;34.20;99.90;;;;;;4985965;28;20225;-74
2023/08/20 09:29:48;;;;;;;7.28;5.20;;;34.10;99.90;;;;;;4981035;28;20206;-73
2023/08/20 09:32:16;;;;;;;5.35;4.38;;;34.60;99.90;;;;;;4989330;28;20214;-75
2023/08/20 09:34:42;;;;;;;6.60;5.40;;;34.40;99.90;;;;;;4989369;28;20716;-74
2023/08/20 09:37:12;;;;;;;7.65;6.95;;;34.60;99.90;;;;;;4984382;28;20213;-74
2023/08/20 09:39:38;;;;;;;6.60;4.72;;;34.40;99.90;;;;;;4980362;28;20205;-74
2023/08/20 09:42:05;;;;;;;3.95;3.45;;;34.60;99.90;;;;;;4978997;28;20297;-74
2023/08/20 09:44:36;;;;;;;3.63;3.15;;;34.70;99.90;;;;;;4978797;28;20257;-71
2023/08/20 09:47:05;;;;;;;3.92;3.33;;;34.80;99.90;;;;;;4980638;28;20225;-74
2023/08/20 09:49:36;;;;;;;3.53;3.22;;;34.70;99.90;;;;;;4982000;28;20193;-70
2023/08/20 09:52:04;;;;;;;3.70;3.30;;;34.50;99.90;;;;;;4984752;28;20190;-74
2023/08/20 09:54:33;;;;;;;5.05;3.10;;;34.30;99.90;;;;;;4995420;28;20213;-71
2023/08/20 09:57:01;;;;;;;5.05;3.95;;;33.80;99.90;;;;;;5014933;22;20225;-71
2023/08/20 09:59:27;;;;;;;11.43;7.63;;;33.80;99.90;;;;;;4998263;28;20224;-71
2023/08/20 10:01:54;;;;;;;8.25;5.53;;;33.60;99.90;;;;;;4998232;28;20210;-71
2023/08/20 10:04:21;;;;;;;9.38;7.43;;;33.60;99.90;;;;;;5003844;28;20205;-72
2023/08/20 10:06:47;;;;;;;4.25;3.28;;;33.80;99.90;;;;;;4992374;28;20214;-71
2023/08/20 10:09:14;;;;;;;3.70;2.70;;;33.80;99.90;;;;;;4985055;28;20205;-71
2023/08/20 10:11:40;;;;;;;3.22;2.90;;;33.00;99.90;;;;;;4986772;28;20590;-71
2023/08/20 10:14:06;;;;;;;4.10;2.53;;;33.20;99.90;;;;;;4994023;28;20209;-71
2023/08/20 10:16:33;;;;;;;4.28;3.17;;;33.20;99.90;;;;;;4982459;28;20212;-71
2023/08/20 10:19:05;;;;;;;5.43;3.88;;;33.20;99.90;;;;;;4987153;28;20651;-71
2023/08/20 10:21:32;;;;;;;3.22;2.85;;;33.30;99.90;;;;;;4984574;28;20297;-71
2023/08/20 10:24:03;;;;;;;4.35;3.03;;;33.20;99.90;;;;;;4984471;28;20590;-71
2023/08/20 10:26:29;;;;;;;2.63;2.25;;;32.80;99.90;;;;;;4982162;28;20218;-72
2023/08/20 10:29:34;;;;;;;2.33;2.08;;;32.60;99.90;;;;;;4985500;28;20288;-71
2023/08/20 10:32:00;;;;;;;2.97;2.67;;;32.20;99.90;;;;;;4994805;28;20240;-71
2023/08/20 10:34:40;;;;;;;5.55;3.97;;;32.30;99.90;;;;;;4983273;28;20198;-72
2023/08/20 10:37:15;;;;;;;3.92;3.00;;;32.70;99.90;;;;;;4998444;28;20202;-72
2023/08/20 10:39:44;;;;;;;3.70;2.95;;;32.80;99.90;;;;;;4993292;28;20244;-71
2023/08/20 10:42:19;;;;;;;4.95;4.13;;;33.00;99.90;;;;;;4987745;28;20234;-71
2023/08/20 10:45:08;;;;;;;5.88;3.03;;;33.00;99.90;;;;;;4992166;28;20676;-71
2023/08/20 10:47:48;;;;;;;3.38;2.85;;;33.20;99.90;;;;;;4989808;28;20304;-71
2023/08/20 10:50:18;;;;;;;3.30;2.78;;;33.20;99.90;;;;;;4977244;28;20224;-71
2023/08/20 10:52:49;;;;;;;4.35;2.80;;;33.10;99.90;;;;;;4984258;28;20256;-71
2023/08/20 10:55:15;;;;;;;3.25;2.95;;;32.90;99.90;;;;;;4992304;28;20200;-71
2023/08/20 10:57:41;;;;;;;3.60;3.30;;;33.10;99.90;;;;;;4985305;28;20222;-71
2023/08/20 11:00:11;;;;;;;3.10;2.72;;;33.30;99.90;;;;;;4987790;28;20225;-71
2023/08/20 11:02:41;;;;;;;2.58;2.38;;;33.30;99.90;;;;;;4983803;28;20217;-72
2023/08/20 11:05:23;;;;;;;8.80;6.40;;;32.80;99.90;;;;;;4986999;28;20754;-71
2023/08/20 11:07:49;;;;;;;6.50;4.10;;;33.00;99.90;;;;;;4990819;28;20751;-71
2023/08/20 11:10:15;;;;;;;3.22;2.90;;;33.20;99.90;;;;;;4992656;28;20269;-71
2023/08/20 11:12:42;;;;;;;3.08;2.78;;;32.90;99.90;;;;;;4991034;28;20217;-71
2023/08/20 11:15:11;;;;;;;3.60;2.55;;;32.80;99.90;;;;;;4983557;28;20701;-71
2023/08/20 11:17:45;;;;;;;4.88;3.67;;;32.70;99.90;;;;;;4996998;28;20241;-71
2023/08/20 11:20:14;;;;;;;3.20;2.78;;;32.90;99.90;;;;;;4976847;28;20268;-71
2023/08/20 11:22:40;;;;;;;2.65;2.30;;;32.80;99.90;;;;;;4989248;28;20635;-70
2023/08/20 11:25:09;;;;;;;3.78;2.80;;;32.80;99.90;;;;;;4988419;28;20549;-70
2023/08/20 11:27:35;;;;;;;3.50;2.17;;;32.60;99.90;;;;;;4990236;28;20237;-71
2023/08/20 11:30:03;;;;;;;4.32;2.60;;;32.60;99.90;;;;;;4988570;28;20228;-71
2023/08/20 11:32:30;;;;;;;3.10;2.63;;;32.50;99.90;;;;;;4987433;28;20217;-71
2023/08/20 11:34:56;;;;;;;4.10;2.88;;;32.60;99.90;;;;;;4986992;28;20209;-71
2023/08/20 11:37:22;;;;;;;4.90;2.80;;;32.50;99.90;;;;;;4986466;28;20205;-71
2023/08/20 11:39:49;;;;;;;3.45;2.60;;;32.50;99.90;;;;;;4986392;28;20181;-71
2023/08/20 11:42:15;;;;;;;4.18;3.05;;;32.60;99.90;;;;;;4986449;28;20206;-72
2023/08/20 11:44:46;;;;;;;6.47;5.22;;;32.60;99.90;;;;;;4986114;28;20212;-71
2023/08/20 11:47:16;;;;;;;9.57;5.95;;;32.60;99.90;;;;;;4982691;28;20245;-70
2023/08/20 11:49:43;;;;;;;3.75;3.20;;;32.40;99.90;;;;;;4992075;28;20719;-70
2023/08/20 11:52:09;;;;;;;2.78;2.47;;;32.00;99.90;;;;;;4992556;28;20195;-71
2023/08/20 11:54:36;;;;;;;4.65;2.33;;;32.10;99.90;;;;;;4991103;28;20237;-71
2023/08/20 11:57:03;;;;;;;3.08;2.40;;;32.00;99.90;;;;;;4992260;28;20229;-71
2023/08/20 11:59:29;;;;;;;3.00;2.22;;;32.10;99.90;;;;;;4990739;28;20210;-71
2023/08/20 12:02:00;;;;;;;3.50;2.75;;;32.30;99.90;;;;;;5004086;28;20206;-71
2023/08/20 12:04:28;;;;;;;2.85;2.40;;;32.20;99.90;;;;;;4993455;28;20620;-72
2023/08/20 12:07:13;;;;;;;6.22;4.68;;;31.90;99.90;;;;;;4988089;28;20593;-71
2023/08/20 12:09:39;;;;;;;4.18;2.15;;;31.90;99.90;;;;;;4985940;28;20264;-71
2023/08/20 12:12:06;;;;;;;4.25;2.30;;;31.80;99.90;;;;;;4982191;28;20237;-71
2023/08/20 12:14:32;;;;;;;2.75;2.35;;;31.80;99.90;;;;;;4985042;28;20218;-71
2023/08/20 12:16:58;;;;;;;3.30;1.90;;;31.80;99.90;;;;;;4985799;28;20208;-71
2023/08/20 12:19:24;;;;;;;2.72;1.92;;;31.90;99.90;;;;;;4984213;28;20173;-71
2023/08/20 12:21:50;;;;;;;3.50;2.13;;;31.90;99.90;;;;;;4991263;28;20180;-72
2023/08/20 12:24:16;;;;;;;4.35;2.30;;;32.00;99.90;;;;;;4995473;28;20206;-71
2023/08/20 12:26:42;;;;;;;2.88;2.28;;;32.00;99.90;;;;;;4984436;28;20217;-71
2023/08/20 12:29:08;;;;;;;3.20;2.10;;;32.00;99.90;;;;;;4994080;28;20241;-71
2023/08/20 12:31:34;;;;;;;2.88;2.20;;;32.10;99.90;;;;;;4992720;28;20718;-71
2023/08/20 12:34:00;;;;;;;2.50;2.00;;;32.00;99.90;;;;;;4992557;28;20605;-71